Time;durP1;ratioP1;P1;durP2;ratioP2;P2;SDS_P1;SDS_P2;PMS_P1;PMS_P2;Temp;Humidity;BMP_temperature;BMP_pressure;BME280_temperature;BME280_humidity;BME280_pressure;Samples;Min_cycle;Max_cycle;Signal;HPM_P1;HPM_P2
2023/01/17 00:02:12;;;;;;;47.27;26.10;;;;;;;4.20;92.68;96135.44;4987974;28;20664;-76
2023/01/17 00:10:17;;;;;;;47.63;26.67;;;;;;;4.37;91.92;96150.22;4987756;28;20194;-77
2023/01/17 00:12:53;;;;;;;44.70;26.20;;;;;;;4.28;91.10;96151.38;4985219;28;20224;-76
2023/01/17 00:15:22;;;;;;;46.13;28.93;;;;;;;4.20;91.39;96143.13;4987898;28;20279;-77
2023/01/17 00:17:49;;;;;;;47.60;26.47;;;;;;;4.05;91.88;96130.84;4986684;28;20228;-77
2023/01/17 00:26:04;;;;;;;49.97;27.33;;;;;;;3.91;92.52;96127.94;4989845;28;20189;-75
2023/01/17 01:35:52;;;;;;;54.63;26.77;;;;;;;3.54;89.76;96071.19;4988703;28;20189;-76
2023/01/17 01:38:24;;;;;;;74.20;38.53;;;;;;;3.42;90.50;96064.75;4989305;28;20208;-76
2023/01/17 01:40:54;;;;;;;96.53;47.33;;;;;;;3.26;91.22;96059.31;4989740;28;20216;-78
2023/01/17 01:43:50;;;;;;;142.53;72.27;;;;;;;3.33;91.34;96064.22;4988492;28;20196;-77
2023/01/17 01:46:25;;;;;;;47.37;26.97;;;;;;;3.28;91.70;96067.78;4989782;28;20183;-77
2023/01/17 01:49:00;;;;;;;55.60;32.30;;;;;;;3.40;91.52;96075.94;4971215;28;20203;-77
2023/01/17 01:51:37;;;;;;;53.00;30.90;;;;;;;3.53;90.89;96077.19;4987625;28;21020;-77
2023/01/17 01:54:10;;;;;;;49.93;28.63;;;;;;;3.60;90.33;96068.41;4989579;28;20192;-76
2023/01/17 01:56:39;;;;;;;47.57;27.27;;;;;;;3.70;90.43;96080.00;4988009;28;20679;-74
2023/01/17 01:59:10;;;;;;;45.17;25.27;;;;;;;3.72;89.95;96073.13;4989487;28;20192;-77
2023/01/17 02:01:37;;;;;;;43.97;24.70;;;;;;;3.46;89.48;96065.50;4988280;28;20278;-75
2023/01/17 02:04:08;;;;;;;35.83;20.73;;;;;;;3.27;90.69;96071.22;4989488;28;20552;-76
2023/01/17 02:06:48;;;;;;;36.00;21.90;;;;;;;3.08;91.70;96072.72;4989116;28;20196;-76
2023/01/17 02:09:16;;;;;;;34.00;20.10;;;;;;;3.03;92.70;96066.88;4986641;28;20235;-77
2023/01/17 02:11:45;;;;;;;32.83;18.20;;;;;;;3.03;92.59;96071.19;4989258;28;20199;-77
2023/01/17 02:14:17;;;;;;;32.27;18.07;;;;;;;3.23;92.46;96061.16;4987794;28;20199;-77
2023/01/17 02:16:47;;;;;;;28.40;18.17;;;;;;;3.02;92.11;96038.81;4989240;28;20195;-77
2023/01/17 02:19:29;;;;;;;33.40;19.20;;;;;;;3.03;92.99;96048.19;4988323;28;20191;-76
2023/01/17 02:22:08;;;;;;;38.10;22.03;;;;;;;3.08;93.07;96067.59;4986947;28;20192;-76
2023/01/17 02:24:38;;;;;;;36.67;21.03;;;;;;;3.05;93.06;96065.13;4987604;28;20729;-76
2023/01/17 02:27:06;;;;;;;44.13;24.97;;;;;;;3.14;92.91;96064.00;4987634;28;20671;-76
2023/01/17 02:30:24;;;;;;;42.53;23.67;;;;;;;3.06;93.64;96076.19;4987569;28;20375;-77
2023/01/17 02:33:21;;;;;;;44.30;23.73;;;;;;;3.25;93.15;96093.47;4971744;28;20200;-78
2023/01/17 02:36:09;;;;;;;48.40;26.13;;;;;;;3.37;92.89;96081.13;4987625;28;20198;-78
2023/01/17 02:38:38;;;;;;;44.57;25.53;;;;;;;3.53;91.81;96087.41;4988729;28;20188;-75
2023/01/17 02:41:12;;;;;;;54.23;29.00;;;;;;;3.54;91.32;96084.81;4987027;28;20188;-77
2023/01/17 02:43:40;;;;;;;50.10;28.00;;;;;;;3.61;91.19;96075.19;4985959;28;20179;-75
2023/01/17 02:46:06;;;;;;;50.00;27.77;;;;;;;3.55;90.63;96070.28;4988739;28;20262;-74
2023/01/17 02:48:36;;;;;;;46.70;26.43;;;;;;;3.64;91.11;96075.94;4987269;28;20279;-73
2023/01/17 02:51:18;;;;;;;43.67;25.30;;;;;;;3.71;90.15;96090.19;4988773;28;20188;-73
2023/01/17 02:54:02;;;;;;;40.53;23.30;;;;;;;3.64;90.76;96080.22;4987451;28;20192;-74
2023/01/17 02:56:29;;;;;;;41.73;23.10;;;;;;;3.51;90.89;96074.69;4987695;28;20250;-76
2023/01/17 02:59:13;;;;;;;40.57;23.67;;;;;;;3.46;90.91;96071.47;4988491;28;20274;-76
2023/01/17 03:02:04;;;;;;;37.67;22.37;;;;;;;3.50;91.46;96072.19;4986153;28;20182;-75
2023/01/17 03:04:46;;;;;;;42.93;23.90;;;;;;;3.62;90.79;96093.09;4988358;28;20446;-74
2023/01/17 03:07:18;;;;;;;37.10;21.70;;;;;;;3.69;90.59;96079.16;4987985;28;20186;-75
2023/01/17 03:09:52;;;;;;;40.77;23.77;;;;;;;3.72;90.13;96073.97;4987110;28;20191;-75
2023/01/17 03:12:20;;;;;;;40.33;23.03;;;;;;;3.78;90.11;96065.22;4988241;28;20696;-76
2023/01/17 03:14:47;;;;;;;40.37;24.00;;;;;;;3.77;90.05;96037.97;4986709;28;20189;-74
2023/01/17 03:17:14;;;;;;;37.10;23.50;;;;;;;3.90;89.92;96039.16;4988266;28;20228;-77
2023/01/17 03:19:41;;;;;;;42.30;23.30;;;;;;;3.82;89.11;96039.47;4987149;28;20196;-75
2023/01/17 03:22:08;;;;;;;37.30;22.07;;;;;;;3.54;90.31;96037.91;4986825;28;20184;-78
2023/01/17 03:24:35;;;;;;;39.33;23.63;;;;;;;3.53;90.78;96029.41;4988130;28;20725;-78
2023/01/17 03:27:02;;;;;;;37.83;22.60;;;;;;;3.35;91.65;96018.94;4986944;28;20255;-77
2023/01/17 03:29:28;;;;;;;48.63;26.93;;;;;;;3.35;92.11;96016.41;4988187;28;20192;-76
2023/01/17 03:31:55;;;;;;;43.23;25.47;;;;;;;3.27;91.69;96009.84;4987178;28;20246;-77
2023/01/17 03:34:23;;;;;;;44.03;26.17;;;;;;;3.43;91.77;96006.72;4987002;28;20284;-76
2023/01/17 03:36:49;;;;;;;46.93;24.27;;;;;;;3.47;91.79;95996.34;4986989;28;20188;-78
2023/01/17 03:39:16;;;;;;;45.00;24.13;;;;;;;3.62;91.55;96000.09;4988155;28;20192;-76
2023/01/17 03:41:43;;;;;;;42.37;24.47;;;;;;;3.68;91.11;95994.75;4987517;28;20204;-78
2023/01/17 03:44:10;;;;;;;39.10;24.40;;;;;;;3.72;91.64;96004.00;4985766;28;20181;-78
2023/01/17 03:46:37;;;;;;;39.13;23.50;;;;;;;3.68;90.19;95979.41;4988110;28;20219;-76
2023/01/17 03:49:04;;;;;;;33.10;21.83;;;;;;;3.64;90.25;95980.38;4986607;28;20191;-75
2023/01/17 03:51:30;;;;;;;42.73;23.57;;;;;;;3.72;90.34;95960.47;4987998;28;20189;-75
2023/01/17 03:53:57;;;;;;;48.73;26.50;;;;;;;3.78;90.47;95965.38;4986395;28;20194;-77
2023/01/17 03:56:24;;;;;;;45.03;24.67;;;;;;;3.86;90.52;95971.88;4990819;28;20223;-77
2023/01/17 03:58:52;;;;;;;38.47;22.43;;;;;;;3.78;89.85;95955.97;4991035;28;20220;-78
2023/01/17 04:01:19;;;;;;;38.07;22.50;;;;;;;3.90;90.64;95963.19;4990911;28;20226;-77
2023/01/17 04:03:46;;;;;;;36.67;22.63;;;;;;;3.93;90.33;95967.38;4991629;28;20217;-77
2023/01/17 04:06:13;;;;;;;37.80;22.47;;;;;;;3.86;89.82;95958.22;4990068;28;20228;-76
2023/01/17 04:08:40;;;;;;;36.43;22.07;;;;;;;3.87;90.15;95962.47;4991531;28;20181;-75
2023/01/17 04:11:07;;;;;;;33.67;21.03;;;;;;;3.92;90.29;95940.06;4990056;28;20649;-75
2023/01/17 04:13:34;;;;;;;35.33;22.20;;;;;;;3.73;90.60;95934.00;4990130;28;20189;-77
2023/01/17 04:16:01;;;;;;;37.37;23.17;;;;;;;3.69;91.59;95929.88;4995911;28;20192;-74
2023/01/17 04:18:27;;;;;;;39.90;23.23;;;;;;;3.78;90.98;95932.91;5010396;28;20729;-76
2023/01/17 04:20:54;;;;;;;40.23;23.57;;;;;;;3.89;91.10;95938.50;5010811;28;20192;-77
2023/01/17 04:23:21;;;;;;;38.80;23.83;;;;;;;3.99;91.11;95939.81;5009595;28;20189;-78
2023/01/17 04:25:48;;;;;;;39.20;24.43;;;;;;;4.09;90.82;95938.56;5010851;28;20270;-77
2023/01/17 04:28:15;;;;;;;37.17;22.63;;;;;;;4.02;90.72;95931.16;5006948;28;20585;-73
2023/01/17 04:30:42;;;;;;;40.23;23.40;;;;;;;3.87;91.06;95954.81;5001978;28;20211;-74
2023/01/17 04:33:09;;;;;;;42.27;22.97;;;;;;;3.94;90.68;95938.28;5009216;28;20729;-77
2023/01/17 04:35:36;;;;;;;40.93;22.00;;;;;;;4.01;90.93;95939.75;5010465;28;20268;-74
2023/01/17 04:38:03;;;;;;;34.63;21.57;;;;;;;4.10;90.67;95944.53;5010042;28;20243;-72
2023/01/17 04:40:30;;;;;;;40.53;21.33;;;;;;;4.05;89.95;95943.84;5009124;28;20192;-73
2023/01/17 04:42:57;;;;;;;34.40;20.13;;;;;;;4.16;90.32;95943.44;5010237;28;20188;-74
2023/01/17 04:45:24;;;;;;;36.27;20.43;;;;;;;4.02;90.00;95937.13;5006710;28;20223;-72
2023/01/17 04:47:51;;;;;;;34.67;19.70;;;;;;;4.02;89.95;95926.03;5010220;28;20201;-74
2023/01/17 04:50:18;;;;;;;33.10;19.80;;;;;;;4.00;90.27;95935.50;5008638;28;20211;-74
2023/01/17 04:52:45;;;;;;;34.53;19.70;;;;;;;3.91;90.01;95946.09;5009960;28;20699;-76
2023/01/17 04:55:12;;;;;;;38.73;20.00;;;;;;;3.82;91.23;95949.00;5008005;28;20191;-74
2023/01/17 04:57:39;;;;;;;37.90;20.20;;;;;;;3.85;90.49;95948.91;5009449;28;20192;-74
2023/01/17 05:00:06;;;;;;;32.27;18.67;;;;;;;3.66;90.72;95924.84;5008777;28;20638;-77
2023/01/17 05:02:33;;;;;;;35.20;18.73;;;;;;;3.04;92.71;95917.69;5008488;28;20201;-75
2023/01/17 05:05:00;;;;;;;36.67;18.93;;;;;;;3.42;93.47;95951.34;5008679;28;20318;-74
2023/01/17 05:07:28;;;;;;;36.73;19.20;;;;;;;3.44;92.80;95936.78;5008333;28;20248;-73
2023/01/17 05:09:55;;;;;;;30.67;18.90;;;;;;;3.25;93.11;95945.09;5009850;28;20199;-73
2023/01/17 05:12:22;;;;;;;32.70;17.90;;;;;;;3.44;93.29;95954.69;5009010;28;20222;-74
2023/01/17 05:14:50;;;;;;;29.10;17.30;;;;;;;3.51;93.12;95945.88;5007030;28;20602;-74
2023/01/17 05:17:17;;;;;;;36.17;19.03;;;;;;;3.72;92.73;95963.03;4993300;28;20223;-74
2023/01/17 05:19:44;;;;;;;28.87;16.87;;;;;;;3.81;92.18;95939.66;4973992;28;20224;-73
2023/01/17 05:22:14;;;;;;;35.10;19.60;;;;;;;3.77;91.86;95915.88;5009635;28;20212;-73
2023/01/17 05:24:45;;;;;;;30.07;18.80;;;;;;;3.84;91.54;95934.41;5007926;28;20212;-76
2023/01/17 05:27:13;;;;;;;38.00;18.90;;;;;;;3.93;91.70;95944.31;5005778;28;20853;-73
2023/01/17 05:29:40;;;;;;;37.20;19.13;;;;;;;4.01;91.63;95958.50;4999684;28;20234;-74
2023/01/17 05:32:07;;;;;;;41.73;23.13;;;;;;;3.98;91.30;95956.06;4989218;28;20196;-73
2023/01/17 05:34:34;;;;;;;55.10;28.40;;;;;;;3.96;90.46;95974.94;4989709;28;20247;-73
2023/01/17 05:37:01;;;;;;;43.57;24.17;;;;;;;3.95;90.33;95979.22;5019374;28;20277;-74
2023/01/17 05:39:29;;;;;;;44.30;24.97;;;;;;;3.82;91.27;95983.13;4989639;28;20322;-74
2023/01/17 05:41:57;;;;;;;45.03;24.77;;;;;;;3.86;91.03;95988.97;4988146;28;20207;-73
2023/01/17 05:44:26;;;;;;;44.27;25.70;;;;;;;3.94;90.76;95999.75;4989770;28;20193;-75
2023/01/17 05:46:54;;;;;;;48.40;28.40;;;;;;;3.78;91.11;96001.22;4988567;28;20760;-75
2023/01/17 05:49:20;;;;;;;49.13;27.90;;;;;;;3.95;91.71;95998.88;5020161;28;20636;-74
2023/01/17 05:51:47;;;;;;;48.03;27.77;;;;;;;3.91;92.42;95995.59;5020322;28;20222;-74
2023/01/17 05:54:15;;;;;;;60.33;31.03;;;;;;;3.65;92.91;95995.69;4986795;28;20196;-74
2023/01/17 05:56:42;;;;;;;49.73;26.77;;;;;;;3.82;92.39;95992.53;4989186;28;20215;-72
2023/01/17 05:59:08;;;;;;;39.50;25.10;;;;;;;3.90;91.56;95986.25;4987534;28;20215;-74
2023/01/17 06:01:38;;;;;;;44.53;24.60;;;;;;;3.91;92.40;95997.31;4987769;28;20196;-74
2023/01/17 06:04:05;;;;;;;39.30;22.73;;;;;;;3.88;92.61;95999.97;4987822;28;20195;-75
2023/01/17 06:06:33;;;;;;;38.87;23.80;;;;;;;3.85;92.47;95992.44;4988891;28;20274;-74
2023/01/17 06:09:00;;;;;;;47.07;23.97;;;;;;;4.13;92.59;96008.44;4988945;28;20198;-73
2023/01/17 06:11:26;;;;;;;46.20;26.53;;;;;;;4.16;92.25;96012.63;4987893;28;20201;-75
2023/01/17 06:13:53;;;;;;;48.83;27.23;;;;;;;4.20;92.50;96020.16;4989161;28;20192;-74
2023/01/17 06:16:20;;;;;;;45.43;27.13;;;;;;;4.13;92.23;96016.97;4987658;28;20221;-75
2023/01/17 06:18:47;;;;;;;49.43;28.73;;;;;;;4.09;92.78;96022.25;4988312;28;20217;-72
2023/01/17 06:21:14;;;;;;;48.33;29.67;;;;;;;4.19;92.20;96010.78;4987378;28;20594;-74
2023/01/17 06:23:41;;;;;;;44.57;26.70;;;;;;;4.19;92.44;96003.09;4988711;28;20215;-75
2023/01/17 06:26:08;;;;;;;47.40;27.13;;;;;;;4.13;93.01;95991.34;4986986;28;20611;-73
2023/01/17 06:28:35;;;;;;;40.37;26.57;;;;;;;4.18;93.22;95974.97;4987810;28;20196;-72
2023/01/17 06:31:07;;;;;;;41.90;25.60;;;;;;;4.34;93.24;96002.53;4988733;28;20184;-72
2023/01/17 06:33:34;;;;;;;47.40;27.97;;;;;;;4.40;92.53;96007.41;4985723;28;20256;-73
2023/01/17 06:36:01;;;;;;;58.70;31.43;;;;;;;4.38;92.19;95986.13;4988588;28;20670;-73
2023/01/17 06:38:28;;;;;;;64.10;30.87;;;;;;;4.56;92.15;95990.53;4987108;28;20740;-74
2023/01/17 06:40:59;;;;;;;53.97;32.10;;;;;;;4.65;91.11;95991.91;4988457;28;20189;-75
2023/01/17 06:43:27;;;;;;;50.80;28.40;;;;;;;4.65;90.59;95999.59;4987848;28;20965;-74
2023/01/17 06:45:54;;;;;;;57.77;31.23;;;;;;;4.73;90.77;96008.66;4969761;28;20235;-75
2023/01/17 06:48:22;;;;;;;52.67;29.60;;;;;;;4.64;90.66;96003.88;4986764;28;20188;-74
2023/01/17 06:50:49;;;;;;;47.43;29.13;;;;;;;4.63;91.10;96016.78;4985303;28;20195;-72
2023/01/17 06:53:16;;;;;;;58.00;32.20;;;;;;;4.77;91.07;96007.66;4987141;28;20571;-73
2023/01/17 06:55:43;;;;;;;57.63;31.60;;;;;;;4.76;90.80;95985.44;5017985;28;20181;-73
2023/01/17 06:58:10;;;;;;;50.57;29.87;;;;;;;4.75;90.92;96006.88;4988207;28;20591;-74
2023/01/17 07:00:37;;;;;;;50.57;29.73;;;;;;;4.91;91.24;96013.06;4986066;28;20605;-74
2023/01/17 07:03:20;;;;;;;54.60;27.33;;;;;;;4.90;90.39;96024.19;4987408;28;20244;-73
2023/01/17 07:05:48;;;;;;;42.30;25.67;;;;;;;4.92;90.24;96017.28;4987878;28;20229;-74
2023/01/17 07:08:16;;;;;;;47.30;25.53;;;;;;;5.03;90.17;96000.66;4986285;28;20775;-74
2023/01/17 07:10:45;;;;;;;45.23;28.83;;;;;;;5.18;89.26;96018.78;4988008;28;20185;-74
2023/01/17 07:13:14;;;;;;;41.43;26.20;;;;;;;5.17;89.82;96016.31;4969283;28;20621;-73
2023/01/17 07:15:41;;;;;;;38.47;23.00;;;;;;;5.05;89.68;96002.22;4987827;28;20187;-73
2023/01/17 07:18:08;;;;;;;40.03;22.77;;;;;;;5.16;89.46;96007.75;4986983;28;20232;-74
2023/01/17 07:20:37;;;;;;;32.83;19.00;;;;;;;5.24;89.03;96023.69;4986764;28;20198;-74
2023/01/17 07:23:05;;;;;;;40.83;19.00;;;;;;;5.37;88.73;96008.59;4987775;28;20796;-74
2023/01/17 07:25:32;;;;;;;29.83;16.37;;;;;;;5.31;87.31;96006.28;5001051;28;20271;-74
2023/01/17 07:28:00;;;;;;;38.73;19.30;;;;;;;5.34;87.46;95985.63;4986241;28;20194;-73
2023/01/17 07:30:27;;;;;;;36.33;20.63;;;;;;;5.62;86.92;95989.53;4987681;28;20577;-74
2023/01/17 07:32:54;;;;;;;30.47;18.33;;;;;;;5.71;86.43;96006.25;4973996;28;20298;-73
2023/01/17 07:35:27;;;;;;;28.57;18.67;;;;;;;5.62;86.44;96012.66;4991018;28;20719;-74
2023/01/17 07:37:54;;;;;;;32.40;19.77;;;;;;;5.67;86.66;96020.13;4990511;28;20193;-75
2023/01/17 07:40:22;;;;;;;31.57;19.20;;;;;;;5.73;87.17;96025.00;4974163;28;20287;-74
2023/01/17 07:42:49;;;;;;;37.97;20.40;;;;;;;5.96;86.96;96022.31;4990196;28;20193;-74
2023/01/17 07:45:16;;;;;;;35.43;21.27;;;;;;;5.62;86.69;96010.09;4991561;28;20191;-73
2023/01/17 07:47:43;;;;;;;34.43;21.13;;;;;;;5.74;87.41;96017.25;4988629;28;20793;-75
2023/01/17 07:50:12;;;;;;;37.27;22.53;;;;;;;5.79;87.21;96025.56;4991309;28;20603;-76
2023/01/17 07:52:40;;;;;;;37.37;21.97;;;;;;;5.84;88.13;96025.41;4990091;28;20194;-75
2023/01/17 07:55:09;;;;;;;40.37;23.77;;;;;;;5.99;88.36;96023.91;4989101;28;20192;-73
2023/01/17 07:57:38;;;;;;;41.20;24.43;;;;;;;6.07;88.41;96014.97;4989756;28;20202;-77
2023/01/17 08:00:06;;;;;;;39.87;21.57;;;;;;;6.24;87.58;96017.63;4988112;28;20251;-74
2023/01/17 08:02:37;;;;;;;41.97;22.87;;;;;;;6.33;88.39;96009.47;4991088;28;20190;-74
2023/01/17 08:05:05;;;;;;;44.50;23.37;;;;;;;6.32;88.28;96000.13;4989694;28;20188;-76
2023/01/17 08:07:31;;;;;;;46.17;22.53;;;;;;;6.51;87.00;96006.06;4991045;28;20224;-74
2023/01/17 08:10:00;;;;;;;31.50;18.87;;;;;;;6.47;87.58;95990.88;4990252;28;20253;-75
2023/01/17 08:13:06;;;;;;;30.97;19.20;;;;;;;6.62;86.88;96000.41;4990572;28;20219;-75
2023/01/17 08:16:28;;;;;;;38.77;20.33;;;;;;;6.86;86.06;95980.41;5017248;28;20188;-73
2023/01/17 08:19:50;;;;;;;36.43;19.00;;;;;;;6.99;85.62;95986.63;4988679;28;20579;-75
2023/01/17 08:23:11;;;;;;;42.97;20.37;;;;;;;7.34;85.56;96001.16;4989605;28;20192;-75
2023/01/17 08:26:32;;;;;;;38.17;20.70;;;;;;;7.51;84.50;96002.91;4989080;28;20219;-77
2023/01/17 08:29:52;;;;;;;36.63;21.10;;;;;;;7.66;83.38;96017.59;4990021;28;20290;-75
2023/01/17 08:33:13;;;;;;;30.97;19.93;;;;;;;7.49;84.28;96010.72;4990485;28;20694;-74
2023/01/17 08:36:34;;;;;;;34.60;20.97;;;;;;;7.57;84.66;96034.34;5016169;28;20195;-75
2023/01/17 08:39:54;;;;;;;39.23;21.70;;;;;;;7.54;85.67;96029.38;4988487;28;20305;-75
2023/01/17 08:43:15;;;;;;;33.03;19.60;;;;;;;7.56;87.12;96052.47;4988962;28;20192;-76
2023/01/17 08:46:36;;;;;;;29.97;19.33;;;;;;;7.37;87.87;96042.25;4989988;28;20350;-74
2023/01/17 08:49:58;;;;;;;25.73;16.27;;;;;;;7.33;88.68;96040.72;4989488;28;20211;-74
2023/01/17 08:53:20;;;;;;;36.50;19.33;;;;;;;7.48;88.62;96029.66;4987759;28;20211;-76
2023/01/17 08:56:45;;;;;;;30.20;17.97;;;;;;;7.48;88.11;96029.66;4988610;28;20541;-76
2023/01/17 09:00:06;;;;;;;28.67;17.50;;;;;;;7.53;87.70;95996.78;4989989;28;20231;-75
2023/01/17 09:03:26;;;;;;;32.40;18.90;;;;;;;7.64;87.48;95998.81;4989865;28;20675;-77
2023/01/17 09:06:47;;;;;;;32.77;19.10;;;;;;;7.76;87.22;96006.75;5015286;28;20270;-76
2023/01/17 09:10:08;;;;;;;32.50;20.27;;;;;;;7.99;86.54;96024.44;4985962;28;20299;-72
2023/01/17 09:13:28;;;;;;;31.80;19.70;;;;;;;7.98;86.29;96012.47;4989243;28;20192;-75
2023/01/17 09:16:49;;;;;;;39.63;22.23;;;;;;;8.19;85.95;96024.25;4989415;28;20275;-74
2023/01/17 09:20:10;;;;;;;30.43;19.17;;;;;;;8.34;85.81;96032.09;4988915;28;20245;-77
2023/01/17 09:23:30;;;;;;;33.90;19.37;;;;;;;8.58;84.94;96026.47;4985990;28;20719;-77
2023/01/17 09:27:03;;;;;;;26.97;17.60;;;;;;;8.67;84.41;96027.72;4986018;28;20251;-74
2023/01/17 09:30:24;;;;;;;25.93;17.27;;;;;;;8.81;83.93;96026.06;4987109;28;20578;-74
2023/01/17 09:33:45;;;;;;;28.07;18.47;;;;;;;8.79;84.47;96024.47;4989337;28;20188;-74
2023/01/17 09:37:06;;;;;;;33.50;19.13;;;;;;;9.08;83.57;96028.84;4988062;28;20258;-74
2023/01/17 09:40:27;;;;;;;30.53;17.50;;;;;;;9.16;83.49;96028.41;4987408;28;20287;-76
2023/01/17 09:43:36;;;;;;;29.43;17.43;;;;;;;9.24;83.52;96032.22;4988290;28;20267;-75
2023/01/17 09:47:00;;;;;;;36.73;17.20;;;;;;;9.27;83.53;96032.06;4986821;28;20224;-78
2023/01/17 09:50:07;;;;;;;29.57;18.27;;;;;;;9.34;83.11;96030.78;4988379;28;20575;-74
2023/01/17 09:53:30;;;;;;;32.30;18.93;;;;;;;9.47;83.05;96031.75;4986330;28;20659;-73
2023/01/17 09:56:31;;;;;;;38.67;19.27;;;;;;;9.60;83.21;96024.94;4988229;28;20198;-74
2023/01/17 09:59:55;;;;;;;30.67;19.13;;;;;;;9.67;82.35;96013.34;4970285;28;20281;-74
2023/01/17 10:02:54;;;;;;;28.17;18.43;;;;;;;9.84;82.11;96015.78;4987290;28;20188;-75
2023/01/17 10:05:53;;;;;;;36.27;20.40;;;;;;;9.89;81.73;96007.75;4986790;28;20238;-74
2023/01/17 10:08:59;;;;;;;29.83;18.77;;;;;;;9.67;82.94;96002.16;4988487;28;20231;-73
2023/01/17 10:12:38;;;;;;;29.10;19.07;;;;;;;9.87;82.35;96009.56;4988107;28;20188;-76
2023/01/17 10:15:41;;;;;;;30.90;19.23;;;;;;;9.77;82.78;96006.69;4926246;29;20207;-75
2023/01/17 10:18:42;;;;;;;33.73;20.70;;;;;;;9.74;82.96;96012.06;4925898;29;20240;-77
2023/01/17 10:22:17;;;;;;;42.07;22.33;;;;;;;9.71;83.18;96001.88;4986400;28;20285;-76
2023/01/17 10:25:04;;;;;;;31.57;18.93;;;;;;;9.75;82.97;96003.38;4985826;28;20635;-75
2023/01/17 10:28:25;;;;;;;35.83;19.10;;;;;;;9.84;82.52;95999.41;4984640;28;20576;-74
2023/01/17 10:31:45;;;;;;;30.47;18.50;;;;;;;9.92;82.23;95992.03;4986766;28;20200;-75
2023/01/17 10:35:15;;;;;;;36.33;20.77;;;;;;;9.89;82.37;95989.66;4987832;28;20200;-74
2023/01/17 10:38:36;;;;;;;45.30;20.30;;;;;;;9.79;83.99;95989.34;4987851;28;20195;-74
2023/01/17 10:41:29;;;;;;;35.10;21.27;;;;;;;9.99;83.15;95975.22;4986822;28;20200;-74
2023/01/17 10:44:41;;;;;;;39.73;20.47;;;;;;;9.96;83.20;95977.16;4986793;28;20276;-73
2023/01/17 10:48:02;;;;;;;46.43;21.50;;;;;;;9.87;83.31;95967.38;4988234;28;20223;-73
2023/01/17 10:51:31;;;;;;;40.73;21.50;;;;;;;9.82;83.98;95973.66;4985722;28;20661;-74
2023/01/17 10:55:07;;;;;;;38.73;20.70;;;;;;;9.89;83.82;95963.78;4984351;28;20184;-75
2023/01/17 10:58:28;;;;;;;41.63;21.00;;;;;;;9.81;83.90;95968.56;4986060;28;20278;-74
2023/01/17 11:01:51;;;;;;;39.43;21.43;;;;;;;9.65;84.84;95976.41;4987084;28;20550;-75
2023/01/17 11:05:14;;;;;;;36.77;21.30;;;;;;;9.64;85.53;95969.56;4987390;28;20335;-76
2023/01/17 11:08:41;;;;;;;44.23;24.20;;;;;;;9.55;84.73;95959.78;4987437;28;20197;-74
2023/01/17 11:12:02;;;;;;;45.90;24.23;;;;;;;9.58;85.30;95980.25;5012603;28;20192;-77
2023/01/17 11:15:05;;;;;;;40.13;23.63;;;;;;;9.51;86.22;95976.38;4985986;28;20190;-76
2023/01/17 11:18:29;;;;;;;41.43;20.43;;;;;;;9.49;85.60;95965.31;4984908;28;20326;-73
2023/01/17 11:21:53;;;;;;;37.93;20.57;;;;;;;9.63;85.51;95967.91;4985623;28;20275;-75
2023/01/17 11:25:13;;;;;;;41.63;23.00;;;;;;;9.72;85.15;95959.63;4984042;28;20191;-76
2023/01/17 11:28:40;;;;;;;36.67;22.40;;;;;;;9.68;85.38;95955.56;5012416;28;20246;-74
2023/01/17 11:32:00;;;;;;;33.33;19.40;;;;;;;9.70;84.97;95958.03;5003371;28;20200;-76
2023/01/17 11:35:33;;;;;;;32.73;20.07;;;;;;;9.67;85.04;95953.88;4987644;28;20617;-75
2023/01/17 11:38:54;;;;;;;32.33;20.57;;;;;;;9.76;84.93;95966.28;4971200;28;20196;-76
2023/01/17 11:42:17;;;;;;;28.83;19.20;;;;;;;9.70;84.88;95966.63;5012904;28;20551;-73
2023/01/17 11:45:41;;;;;;;36.40;19.90;;;;;;;9.52;86.23;95970.28;4967790;28;20215;-74
2023/01/17 11:49:02;;;;;;;33.23;17.47;;;;;;;9.62;86.23;95968.81;4985131;28;20211;-74
2023/01/17 11:52:08;;;;;;;27.73;17.43;;;;;;;9.52;86.75;95952.19;4987163;28;20683;-74
2023/01/17 11:55:29;;;;;;;29.03;17.23;;;;;;;9.52;86.45;95952.19;4985617;28;20287;-75
2023/01/17 11:58:49;;;;;;;35.20;18.67;;;;;;;9.45;86.62;95970.75;4983220;28;20284;-73
2023/01/17 12:01:49;;;;;;;32.73;18.43;;;;;;;9.56;86.79;95973.53;4986977;28;20188;-74
2023/01/17 12:05:09;;;;;;;37.73;19.77;;;;;;;9.54;86.54;95976.19;4986679;28;20328;-75
2023/01/17 12:08:22;;;;;;;34.13;22.93;;;;;;;9.56;86.26;95981.28;4985717;28;20252;-76
2023/01/17 12:13:59;;;;;;;37.00;20.40;;;;;;;9.49;86.81;95967.91;4985547;28;20271;-75
2023/01/17 12:15:33;;;;;;;32.37;19.20;;;;;;;9.54;87.00;95957.28;4984356;28;20188;-76
2023/01/17 12:19:06;;;;;;;32.70;19.90;;;;;;;9.53;86.46;95959.03;4989028;28;20707;-77
2023/01/17 12:21:53;;;;;;;34.47;20.10;;;;;;;9.62;86.16;95955.88;4988829;28;20196;-75
2023/01/17 12:25:21;;;;;;;31.67;18.90;;;;;;;9.63;86.34;95941.22;4987016;28;20688;-77
2023/01/17 12:28:25;;;;;;;35.10;20.17;;;;;;;9.81;85.57;95940.94;4989796;28;20191;-75
2023/01/17 12:31:48;;;;;;;37.60;21.10;;;;;;;9.83;85.66;95949.44;4991394;28;20258;-78
2023/01/17 12:35:26;;;;;;;35.23;20.83;;;;;;;9.90;85.30;95943.91;4988054;28;20189;-76
2023/01/17 12:38:47;;;;;;;37.67;21.60;;;;;;;9.90;85.50;95946.50;4986994;28;20763;-77
2023/01/17 12:42:19;;;;;;;49.97;26.30;;;;;;;9.94;85.54;95938.47;4988719;28;20280;-75
2023/01/17 12:45:40;;;;;;;38.50;22.30;;;;;;;10.04;85.19;95946.47;4987889;28;20191;-76
2023/01/17 12:49:01;;;;;;;43.57;24.03;;;;;;;10.02;85.10;95946.59;4989043;28;20711;-76
2023/01/17 12:52:21;;;;;;;36.33;21.17;;;;;;;9.96;85.78;95946.13;5016540;28;20180;-76
2023/01/17 12:55:48;;;;;;;36.13;21.77;;;;;;;10.00;85.57;95945.00;4988641;28;20197;-74
2023/01/17 12:59:09;;;;;;;34.87;22.33;;;;;;;10.05;86.08;95936.06;4987143;28;20201;-75
2023/01/17 13:02:32;;;;;;;37.57;22.20;;;;;;;10.08;85.64;95937.59;4989662;28;20193;-73
2023/01/17 13:05:33;;;;;;;36.50;21.33;;;;;;;10.11;86.00;95929.72;4987044;28;20239;-73
2023/01/17 13:08:29;;;;;;;28.87;18.60;;;;;;;10.18;85.69;95923.25;4988321;28;20665;-74
2023/01/17 13:11:58;;;;;;;31.83;19.10;;;;;;;10.17;85.85;95922.41;4989154;28;20197;-76
2023/01/17 13:15:19;;;;;;;22.57;15.37;;;;;;;10.22;85.41;95920.34;4990105;28;20315;-73
2023/01/17 13:18:55;;;;;;;29.90;16.23;;;;;;;10.16;85.32;95920.72;4989186;28;20229;-76
2023/01/17 13:22:18;;;;;;;33.13;18.63;;;;;;;10.19;86.38;95941.25;4988639;28;20196;-75
2023/01/17 13:25:01;;;;;;;38.40;23.47;;;;;;;10.30;85.66;95938.00;5015087;28;20185;-75
2023/01/17 13:28:02;;;;;;;42.60;23.47;;;;;;;10.29;85.82;95933.72;5016093;28;20342;-75
2023/01/17 13:31:02;;;;;;;37.00;21.97;;;;;;;10.34;85.46;95929.13;4988826;28;20192;-76
2023/01/17 13:34:04;;;;;;;33.30;20.57;;;;;;;10.34;85.30;95934.28;4987796;28;20199;-76
2023/01/17 13:37:19;;;;;;;35.93;20.40;;;;;;;10.38;84.82;95925.41;4989369;28;20195;-75
2023/01/17 13:40:39;;;;;;;34.47;20.17;;;;;;;10.41;84.77;95909.66;4989251;28;20275;-75
2023/01/17 13:44:21;;;;;;;35.33;20.47;;;;;;;10.45;84.68;95908.53;4963334;28;20203;-75
2023/01/17 13:47:24;;;;;;;37.77;21.97;;;;;;;10.45;84.75;95911.97;4987570;28;20738;-75
2023/01/17 13:50:36;;;;;;;43.90;21.83;;;;;;;10.30;84.58;95907.78;4986363;28;20203;-74
2023/01/17 13:53:32;;;;;;;45.73;26.33;;;;;;;10.23;86.28;95916.84;4989133;28;20359;-75
2023/01/17 13:57:08;;;;;;;53.40;28.87;;;;;;;10.30;86.32;95912.13;4988217;28;20227;-78
2023/01/17 14:00:09;;;;;;;54.80;28.50;;;;;;;10.25;86.26;95903.81;4987511;28;20184;-74
2023/01/17 14:03:29;;;;;;;54.00;29.77;;;;;;;10.27;86.46;95891.59;5019062;28;20193;-76
2023/01/17 14:07:02;;;;;;;47.77;23.40;;;;;;;9.97;88.11;95904.66;4988954;28;20235;-74
2023/01/17 14:10:21;;;;;;;33.70;20.40;;;;;;;10.10;88.45;95905.59;4961556;28;20638;-76
2023/01/17 14:13:30;;;;;;;27.90;17.50;;;;;;;9.64;90.36;95909.28;4985216;28;20671;-74
2023/01/17 14:16:20;;;;;;;28.87;16.90;;;;;;;9.77;90.04;95902.44;4987553;28;20243;-73
2023/01/17 14:19:43;;;;;;;39.43;18.27;;;;;;;9.85;89.14;95895.88;4988357;28;20279;-74
2023/01/17 14:23:10;;;;;;;33.03;17.90;;;;;;;9.93;88.95;95898.03;4987871;28;20198;-74
2023/01/17 14:26:58;;;;;;;33.03;16.90;;;;;;;9.97;88.35;95903.84;4971919;28;20235;-73